sensor_id;sensor_type;location;lat;lon;timestamp;P1;durP1;ratioP1;P2;durP2;ratioP2
68985;SDS011;56035;37.534;-122.308;2022-07-29T00:01:08;1.38;;;0.73;;
68985;SDS011;56035;37.534;-122.308;2022-07-29T00:03:39;1.83;;;0.60;;
68985;SDS011;56035;37.534;-122.308;2022-07-29T00:06:05;2.72;;;0.50;;
68985;SDS011;56035;37.534;-122.308;2022-07-29T00:08:31;3.38;;;0.75;;
68985;SDS011;56035;37.534;-122.308;2022-07-29T00:10:57;1.27;;;0.70;;
68985;SDS011;56035;37.534;-122.308;2022-07-29T00:13:23;1.20;;;0.68;;
68985;SDS011;56035;37.534;-122.308;2022-07-29T00:15:49;2.75;;;0.80;;
68985;SDS011;56035;37.534;-122.308;2022-07-29T00:18:15;1.20;;;0.60;;
68985;SDS011;56035;37.534;-122.308;2022-07-29T00:20:42;0.85;;;0.45;;
68985;SDS011;56035;37.534;-122.308;2022-07-29T00:23:08;2.58;;;0.68;;
68985;SDS011;56035;37.534;-122.308;2022-07-29T00:25:34;1.42;;;0.60;;
68985;SDS011;56035;37.534;-122.308;2022-07-29T00:28:00;1.35;;;0.50;;
68985;SDS011;56035;37.534;-122.308;2022-07-29T00:30:26;3.03;;;0.60;;
68985;SDS011;56035;37.534;-122.308;2022-07-29T00:32:52;1.45;;;0.68;;
68985;SDS011;56035;37.534;-122.308;2022-07-29T00:35:18;2.72;;;0.65;;
68985;SDS011;56035;37.534;-122.308;2022-07-29T00:38:03;1.17;;;0.50;;
68985;SDS011;56035;37.534;-122.308;2022-07-29T00:40:29;2.08;;;0.60;;
68985;SDS011;56035;37.534;-122.308;2022-07-29T00:42:55;1.17;;;0.68;;
68985;SDS011;56035;37.534;-122.308;2022-07-29T00:45:21;1.60;;;0.75;;
68985;SDS011;56035;37.534;-122.308;2022-07-29T00:47:48;2.70;;;0.60;;
68985;SDS011;56035;37.534;-122.308;2022-07-29T00:50:14;0.82;;;0.40;;
68985;SDS011;56035;37.534;-122.308;2022-07-29T00:52:41;1.60;;;0.50;;
68985;SDS011;56035;37.534;-122.308;2022-07-29T00:55:09;3.28;;;0.80;;
68985;SDS011;56035;37.534;-122.308;2022-07-29T00:57:37;2.95;;;0.65;;
68985;SDS011;56035;37.534;-122.308;2022-07-29T01:00:04;0.98;;;0.50;;
68985;SDS011;56035;37.534;-122.308;2022-07-29T01:02:31;1.23;;;0.60;;
68985;SDS011;56035;37.534;-122.308;2022-07-29T01:04:57;2.38;;;0.60;;
68985;SDS011;56035;37.534;-122.308;2022-07-29T01:07:25;1.90;;;0.73;;
68985;SDS011;56035;37.534;-122.308;2022-07-29T01:09:53;1.67;;;0.80;;
68985;SDS011;56035;37.534;-122.308;2022-07-29T01:12:24;2.08;;;0.77;;
68985;SDS011;56035;37.534;-122.308;2022-07-29T01:14:53;1.73;;;0.80;;
68985;SDS011;56035;37.534;-122.308;2022-07-29T01:17:23;1.02;;;0.50;;
68985;SDS011;56035;37.534;-122.308;2022-07-29T01:31:14;1.17;;;0.50;;
68985;SDS011;56035;37.534;-122.308;2022-07-29T01:33:45;1.40;;;0.50;;
68985;SDS011;56035;37.534;-122.308;2022-07-29T01:39:23;1.90;;;0.63;;
68985;SDS011;56035;37.534;-122.308;2022-07-29T01:41:57;1.15;;;0.60;;
68985;SDS011;56035;37.534;-122.308;2022-07-29T01:44:48;1.85;;;0.57;;
68985;SDS011;56035;37.534;-122.308;2022-07-29T01:47:23;1.58;;;0.60;;
68985;SDS011;56035;37.534;-122.308;2022-07-29T01:49:52;1.15;;;0.50;;
68985;SDS011;56035;37.534;-122.308;2022-07-29T01:52:43;0.98;;;0.40;;
68985;SDS011;56035;37.534;-122.308;2022-07-29T01:55:14;2.72;;;0.80;;
68985;SDS011;56035;37.534;-122.308;2022-07-29T01:57:43;1.95;;;0.60;;
68985;SDS011;56035;37.534;-122.308;2022-07-29T02:00:12;0.88;;;0.52;;
68985;SDS011;56035;37.534;-122.308;2022-07-29T02:02:40;0.90;;;0.40;;
68985;SDS011;56035;37.534;-122.308;2022-07-29T02:05:09;1.00;;;0.43;;
68985;SDS011;56035;37.534;-122.308;2022-07-29T02:07:40;1.30;;;0.50;;
68985;SDS011;56035;37.534;-122.308;2022-07-29T02:10:08;1.92;;;1.20;;
68985;SDS011;56035;37.534;-122.308;2022-07-29T02:12:36;1.58;;;0.60;;
68985;SDS011;56035;37.534;-122.308;2022-07-29T02:15:03;1.23;;;0.60;;
68985;SDS011;56035;37.534;-122.308;2022-07-29T02:17:33;2.22;;;0.55;;
68985;SDS011;56035;37.534;-122.308;2022-07-29T02:20:04;1.42;;;0.65;;
68985;SDS011;56035;37.534;-122.308;2022-07-29T02:22:33;2.70;;;0.68;;
68985;SDS011;56035;37.534;-122.308;2022-07-29T02:25:02;1.33;;;0.50;;
68985;SDS011;56035;37.534;-122.308;2022-07-29T02:27:29;1.80;;;0.60;;
68985;SDS011;56035;37.534;-122.308;2022-07-29T02:29:59;1.58;;;0.68;;
68985;SDS011;56035;37.534;-122.308;2022-07-29T02:32:27;1.35;;;0.50;;
68985;SDS011;56035;37.534;-122.308;2022-07-29T02:34:56;2.42;;;0.60;;
68985;SDS011;56035;37.534;-122.308;2022-07-29T02:37:24;1.52;;;0.52;;
68985;SDS011;56035;37.534;-122.308;2022-07-29T02:39:54;1.50;;;0.40;;
68985;SDS011;56035;37.534;-122.308;2022-07-29T02:42:22;1.77;;;0.40;;
68985;SDS011;56035;37.534;-122.308;2022-07-29T02:44:49;1.98;;;0.68;;
68985;SDS011;56035;37.534;-122.308;2022-07-29T02:47:18;1.13;;;0.50;;
68985;SDS011;56035;37.534;-122.308;2022-07-29T02:50:14;1.50;;;0.40;;
68985;SDS011;56035;37.534;-122.308;2022-07-29T02:52:52;0.90;;;0.40;;
68985;SDS011;56035;37.534;-122.308;2022-07-29T02:57:54;0.67;;;0.30;;
68985;SDS011;56035;37.534;-122.308;2022-07-29T03:00:27;2.30;;;0.47;;
68985;SDS011;56035;37.534;-122.308;2022-07-29T03:02:59;0.60;;;0.50;;
68985;SDS011;56035;37.534;-122.308;2022-07-29T03:05:29;1.05;;;0.38;;
68985;SDS011;56035;37.534;-122.308;2022-07-29T03:08:00;0.87;;;0.30;;
68985;SDS011;56035;37.534;-122.308;2022-07-29T03:10:29;1.47;;;0.70;;
68985;SDS011;56035;37.534;-122.308;2022-07-29T03:12:56;0.82;;;0.30;;
68985;SDS011;56035;37.534;-122.308;2022-07-29T03:17:50;1.10;;;0.30;;
68985;SDS011;56035;37.534;-122.308;2022-07-29T03:22:44;0.80;;;0.30;;
68985;SDS011;56035;37.534;-122.308;2022-07-29T03:25:14;0.90;;;0.37;;
68985;SDS011;56035;37.534;-122.308;2022-07-29T03:27:41;0.90;;;0.23;;
68985;SDS011;56035;37.534;-122.308;2022-07-29T03:32:34;0.73;;;0.30;;
68985;SDS011;56035;37.534;-122.308;2022-07-29T03:35:01;0.77;;;0.32;;
68985;SDS011;56035;37.534;-122.308;2022-07-29T03:37:27;0.30;;;0.20;;
68985;SDS011;56035;37.534;-122.308;2022-07-29T03:39:56;1.73;;;0.67;;
68985;SDS011;56035;37.534;-122.308;2022-07-29T03:42:27;0.97;;;0.37;;
68985;SDS011;56035;37.534;-122.308;2022-07-29T03:44:57;1.23;;;0.40;;
68985;SDS011;56035;37.534;-122.308;2022-07-29T03:47:26;0.93;;;0.20;;
68985;SDS011;56035;37.534;-122.308;2022-07-29T03:49:57;2.70;;;0.50;;
68985;SDS011;56035;37.534;-122.308;2022-07-29T03:52:27;1.03;;;0.20;;
68985;SDS011;56035;37.534;-122.308;2022-07-29T03:54:53;0.63;;;0.43;;
68985;SDS011;56035;37.534;-122.308;2022-07-29T03:57:20;1.08;;;0.38;;
68985;SDS011;56035;37.534;-122.308;2022-07-29T03:59:51;0.37;;;0.20;;
68985;SDS011;56035;37.534;-122.308;2022-07-29T04:02:18;0.83;;;0.30;;
68985;SDS011;56035;37.534;-122.308;2022-07-29T04:04:46;0.57;;;0.20;;
68985;SDS011;56035;37.534;-122.308;2022-07-29T04:07:13;0.73;;;0.30;;
68985;SDS011;56035;37.534;-122.308;2022-07-29T04:09:40;0.68;;;0.22;;
68985;SDS011;56035;37.534;-122.308;2022-07-29T04:12:07;0.52;;;0.30;;
68985;SDS011;56035;37.534;-122.308;2022-07-29T04:14:34;1.42;;;0.40;;
68985;SDS011;56035;37.534;-122.308;2022-07-29T04:17:00;0.50;;;0.30;;
68985;SDS011;56035;37.534;-122.308;2022-07-29T04:19:27;0.90;;;0.30;;
68985;SDS011;56035;37.534;-122.308;2022-07-29T04:21:54;0.55;;;0.20;;
68985;SDS011;56035;37.534;-122.308;2022-07-29T04:24:20;1.10;;;0.32;;
68985;SDS011;56035;37.534;-122.308;2022-07-29T04:26:46;0.30;;;0.20;;
68985;SDS011;56035;37.534;-122.308;2022-07-29T04:29:13;1.67;;;0.40;;
68985;SDS011;56035;37.534;-122.308;2022-07-29T04:31:39;1.85;;;0.40;;
68985;SDS011;56035;37.534;-122.308;2022-07-29T04:34:06;0.73;;;0.30;;
68985;SDS011;56035;37.534;-122.308;2022-07-29T04:36:34;1.70;;;0.40;;
68985;SDS011;56035;37.534;-122.308;2022-07-29T04:39:00;1.30;;;0.20;;
68985;SDS011;56035;37.534;-122.308;2022-07-29T04:41:27;0.65;;;0.30;;
68985;SDS011;56035;37.534;-122.308;2022-07-29T04:46:19;1.43;;;0.30;;
68985;SDS011;56035;37.534;-122.308;2022-07-29T04:48:46;0.22;;;0.10;;
68985;SDS011;56035;37.534;-122.308;2022-07-29T04:51:13;0.30;;;0.10;;
68985;SDS011;56035;37.534;-122.308;2022-07-29T04:53:40;0.40;;;0.20;;
68985;SDS011;56035;37.534;-122.308;2022-07-29T04:56:07;0.17;;;0.05;;
68985;SDS011;56035;37.534;-122.308;2022-07-29T04:58:34;0.77;;;0.30;;
68985;SDS011;56035;37.534;-122.308;2022-07-29T05:01:03;0.80;;;0.23;;
68985;SDS011;56035;37.534;-122.308;2022-07-29T05:03:32;0.43;;;0.30;;
68985;SDS011;56035;37.534;-122.308;2022-07-29T05:05:58;0.90;;;0.20;;
68985;SDS011;56035;37.534;-122.308;2022-07-29T05:08:25;0.85;;;0.30;;
68985;SDS011;56035;37.534;-122.308;2022-07-29T05:10:54;0.40;;;0.20;;
68985;SDS011;56035;37.534;-122.308;2022-07-29T05:13:20;0.55;;;0.20;;
68985;SDS011;56035;37.534;-122.308;2022-07-29T05:15:46;1.08;;;0.30;;
68985;SDS011;56035;37.534;-122.308;2022-07-29T05:18:12;0.68;;;0.30;;
68985;SDS011;56035;37.534;-122.308;2022-07-29T05:20:39;0.68;;;0.25;;
68985;SDS011;56035;37.534;-122.308;2022-07-29T05:23:05;0.85;;;0.20;;
68985;SDS011;56035;37.534;-122.308;2022-07-29T05:25:31;0.50;;;0.10;;
68985;SDS011;56035;37.534;-122.308;2022-07-29T05:27:57;1.45;;;0.52;;
68985;SDS011;56035;37.534;-122.308;2022-07-29T05:30:24;0.65;;;0.20;;
68985;SDS011;56035;37.534;-122.308;2022-07-29T05:32:50;0.95;;;0.20;;
68985;SDS011;56035;37.534;-122.308;2022-07-29T05:35:16;1.05;;;0.20;;
68985;SDS011;56035;37.534;-122.308;2022-07-29T05:37:42;1.15;;;0.38;;
68985;SDS011;56035;37.534;-122.308;2022-07-29T05:40:08;0.30;;;0.10;;
68985;SDS011;56035;37.534;-122.308;2022-07-29T05:42:35;0.20;;;0.10;;
68985;SDS011;56035;37.534;-122.308;2022-07-29T05:45:04;0.50;;;0.20;;
68985;SDS011;56035;37.534;-122.308;2022-07-29T05:47:31;0.90;;;0.50;;
68985;SDS011;56035;37.534;-122.308;2022-07-29T05:49:57;0.68;;;0.40;;
68985;SDS011;56035;37.534;-122.308;2022-07-29T05:52:23;0.28;;;0.10;;
68985;SDS011;56035;37.534;-122.308;2022-07-29T05:54:49;0.70;;;0.15;;
68985;SDS011;56035;37.534;-122.308;2022-07-29T05:57:17;1.17;;;0.20;;
68985;SDS011;56035;37.534;-122.308;2022-07-29T05:59:44;1.37;;;0.40;;
68985;SDS011;56035;37.534;-122.308;2022-07-29T06:04:36;0.40;;;0.23;;
68985;SDS011;56035;37.534;-122.308;2022-07-29T06:07:03;0.28;;;0.20;;
68985;SDS011;56035;37.534;-122.308;2022-07-29T06:09:29;0.35;;;0.20;;
68985;SDS011;56035;37.534;-122.308;2022-07-29T06:11:55;0.68;;;0.20;;
68985;SDS011;56035;37.534;-122.308;2022-07-29T06:14:23;0.40;;;0.30;;
68985;SDS011;56035;37.534;-122.308;2022-07-29T06:16:49;0.63;;;0.30;;
68985;SDS011;56035;37.534;-122.308;2022-07-29T06:19:15;0.68;;;0.30;;
68985;SDS011;56035;37.534;-122.308;2022-07-29T06:21:45;0.75;;;0.40;;
68985;SDS011;56035;37.534;-122.308;2022-07-29T06:24:12;1.70;;;0.60;;
68985;SDS011;56035;37.534;-122.308;2022-07-29T06:26:39;0.90;;;0.30;;
68985;SDS011;56035;37.534;-122.308;2022-07-29T06:29:06;1.07;;;0.40;;
68985;SDS011;56035;37.534;-122.308;2022-07-29T06:31:33;0.80;;;0.40;;
68985;SDS011;56035;37.534;-122.308;2022-07-29T06:33:59;0.65;;;0.32;;
68985;SDS011;56035;37.534;-122.308;2022-07-29T06:36:25;0.93;;;0.50;;
68985;SDS011;56035;37.534;-122.308;2022-07-29T06:38:52;1.58;;;0.52;;
68985;SDS011;56035;37.534;-122.308;2022-07-29T06:41:18;1.17;;;0.38;;
68985;SDS011;56035;37.534;-122.308;2022-07-29T06:43:44;1.30;;;0.40;;
68985;SDS011;56035;37.534;-122.308;2022-07-29T06:48:38;1.30;;;0.40;;
68985;SDS011;56035;37.534;-122.308;2022-07-29T06:51:05;0.53;;;0.30;;
68985;SDS011;56035;37.534;-122.308;2022-07-29T06:53:32;0.82;;;0.40;;
68985;SDS011;56035;37.534;-122.308;2022-07-29T06:56:00;0.90;;;0.40;;
68985;SDS011;56035;37.534;-122.308;2022-07-29T06:58:27;1.10;;;0.50;;
68985;SDS011;56035;37.534;-122.308;2022-07-29T07:01:00;1.23;;;0.60;;
68985;SDS011;56035;37.534;-122.308;2022-07-29T07:03:28;1.37;;;0.70;;
68985;SDS011;56035;37.534;-122.308;2022-07-29T07:05:54;2.03;;;0.63;;
68985;SDS011;56035;37.534;-122.308;2022-07-29T07:08:21;1.17;;;0.57;;
68985;SDS011;56035;37.534;-122.308;2022-07-29T07:10:49;1.10;;;0.40;;
68985;SDS011;56035;37.534;-122.308;2022-07-29T07:13:16;1.90;;;0.80;;
68985;SDS011;56035;37.534;-122.308;2022-07-29T07:15:45;1.50;;;0.55;;
68985;SDS011;56035;37.534;-122.308;2022-07-29T07:18:13;1.10;;;0.50;;
68985;SDS011;56035;37.534;-122.308;2022-07-29T07:20:40;1.93;;;0.40;;
68985;SDS011;56035;37.534;-122.308;2022-07-29T07:23:07;0.73;;;0.35;;
68985;SDS011;56035;37.534;-122.308;2022-07-29T07:25:33;0.88;;;0.40;;
68985;SDS011;56035;37.534;-122.308;2022-07-29T07:27:59;1.48;;;0.50;;
68985;SDS011;56035;37.534;-122.308;2022-07-29T07:30:26;1.58;;;0.60;;
68985;SDS011;56035;37.534;-122.308;2022-07-29T07:32:52;1.23;;;0.40;;
68985;SDS011;56035;37.534;-122.308;2022-07-29T07:35:19;1.55;;;0.47;;
68985;SDS011;56035;37.534;-122.308;2022-07-29T07:37:45;0.85;;;0.40;;
68985;SDS011;56035;37.534;-122.308;2022-07-29T07:40:12;0.75;;;0.40;;
68985;SDS011;56035;37.534;-122.308;2022-07-29T07:42:39;1.13;;;0.55;;
68985;SDS011;56035;37.534;-122.308;2022-07-29T07:45:06;1.37;;;0.33;;
68985;SDS011;56035;37.534;-122.308;2022-07-29T07:47:37;0.83;;;0.30;;
68985;SDS011;56035;37.534;-122.308;2022-07-29T07:50:05;0.40;;;0.20;;
68985;SDS011;56035;37.534;-122.308;2022-07-29T07:52:33;1.30;;;0.30;;
68985;SDS011;56035;37.534;-122.308;2022-07-29T07:54:59;0.45;;;0.35;;
68985;SDS011;56035;37.534;-122.308;2022-07-29T07:59:52;0.60;;;0.20;;
68985;SDS011;56035;37.534;-122.308;2022-07-29T08:02:18;0.32;;;0.20;;
68985;SDS011;56035;37.534;-122.308;2022-07-29T08:04:44;2.10;;;0.43;;
68985;SDS011;56035;37.534;-122.308;2022-07-29T08:07:10;0.32;;;0.20;;
68985;SDS011;56035;37.534;-122.308;2022-07-29T08:09:36;0.70;;;0.30;;
68985;SDS011;56035;37.534;-122.308;2022-07-29T08:12:03;0.38;;;0.20;;
68985;SDS011;56035;37.534;-122.308;2022-07-29T08:14:30;0.50;;;0.17;;
68985;SDS011;56035;37.534;-122.308;2022-07-29T08:16:57;0.50;;;0.20;;
68985;SDS011;56035;37.534;-122.308;2022-07-29T08:19:23;1.30;;;0.20;;
68985;SDS011;56035;37.534;-122.308;2022-07-29T08:21:50;0.85;;;0.20;;
68985;SDS011;56035;37.534;-122.308;2022-07-29T08:24:17;2.27;;;0.50;;
68985;SDS011;56035;37.534;-122.308;2022-07-29T08:27:02;1.90;;;0.20;;
68985;SDS011;56035;37.534;-122.308;2022-07-29T08:29:28;0.10;;;0.10;;
68985;SDS011;56035;37.534;-122.308;2022-07-29T08:31:54;0.32;;;0.10;;
68985;SDS011;56035;37.534;-122.308;2022-07-29T08:34:21;0.20;;;0.15;;
68985;SDS011;56035;37.534;-122.308;2022-07-29T08:36:47;0.32;;;0.20;;
68985;SDS011;56035;37.534;-122.308;2022-07-29T08:39:13;0.35;;;0.10;;
68985;SDS011;56035;37.534;-122.308;2022-07-29T08:41:39;0.10;;;0.10;;
68985;SDS011;56035;37.534;-122.308;2022-07-29T08:44:05;0.82;;;0.25;;
68985;SDS011;56035;37.534;-122.308;2022-07-29T08:46:31;0.57;;;0.20;;
68985;SDS011;56035;37.534;-122.308;2022-07-29T08:48:58;0.43;;;0.10;;
68985;SDS011;56035;37.534;-122.308;2022-07-29T08:51:24;0.70;;;0.17;;
68985;SDS011;56035;37.534;-122.308;2022-07-29T08:53:53;0.35;;;0.10;;
68985;SDS011;56035;37.534;-122.308;2022-07-29T08:56:20;0.70;;;0.20;;
68985;SDS011;56035;37.534;-122.308;2022-07-29T08:58:47;1.63;;;0.30;;
68985;SDS011;56035;37.534;-122.308;2022-07-29T09:01:16;0.55;;;0.20;;
68985;SDS011;56035;37.534;-122.308;2022-07-29T09:03:46;0.37;;;0.17;;
68985;SDS011;56035;37.534;-122.308;2022-07-29T09:06:13;0.60;;;0.20;;
68985;SDS011;56035;37.534;-122.308;2022-07-29T09:08:40;0.23;;;0.10;;
68985;SDS011;56035;37.534;-122.308;2022-07-29T09:13:34;0.40;;;0.20;;
68985;SDS011;56035;37.534;-122.308;2022-07-29T09:16:00;0.13;;;0.10;;
68985;SDS011;56035;37.534;-122.308;2022-07-29T09:21:01;0.30;;;0.10;;
68985;SDS011;56035;37.534;-122.308;2022-07-29T09:24:11;0.95;;;0.20;;
68985;SDS011;56035;37.534;-122.308;2022-07-29T09:26:44;0.90;;;0.30;;
68985;SDS011;56035;37.534;-122.308;2022-07-29T09:29:13;1.20;;;0.10;;
68985;SDS011;56035;37.534;-122.308;2022-07-29T09:31:42;0.47;;;0.10;;
68985;SDS011;56035;37.534;-122.308;2022-07-29T09:34:13;0.15;;;0.08;;
68985;SDS011;56035;37.534;-122.308;2022-07-29T09:36:46;0.03;;;0.00;;
68985;SDS011;56035;37.534;-122.308;2022-07-29T09:39:14;0.10;;;0.10;;
68985;SDS011;56035;37.534;-122.308;2022-07-29T09:41:52;0.20;;;0.10;;
68985;SDS011;56035;37.534;-122.308;2022-07-29T09:44:24;0.50;;;0.20;;
68985;SDS011;56035;37.534;-122.308;2022-07-29T09:47:00;0.40;;;0.10;;
68985;SDS011;56035;37.534;-122.308;2022-07-29T09:49:31;0.10;;;0.10;;
68985;SDS011;56035;37.534;-122.308;2022-07-29T09:52:05;0.30;;;0.10;;
68985;SDS011;56035;37.534;-122.308;2022-07-29T09:54:33;0.10;;;0.10;;
68985;SDS011;56035;37.534;-122.308;2022-07-29T09:57:07;0.52;;;0.20;;
68985;SDS011;56035;37.534;-122.308;2022-07-29T09:59:38;0.40;;;0.20;;
68985;SDS011;56035;37.534;-122.308;2022-07-29T10:04:40;0.63;;;0.20;;
68985;SDS011;56035;37.534;-122.308;2022-07-29T10:07:07;0.43;;;0.20;;
68985;SDS011;56035;37.534;-122.308;2022-07-29T10:09:33;0.68;;;0.10;;
68985;SDS011;56035;37.534;-122.308;2022-07-29T10:12:04;0.33;;;0.10;;
68985;SDS011;56035;37.534;-122.308;2022-07-29T10:14:41;0.32;;;0.05;;
68985;SDS011;56035;37.534;-122.308;2022-07-29T10:17:09;0.57;;;0.10;;
68985;SDS011;56035;37.534;-122.308;2022-07-29T10:19:36;0.10;;;0.08;;
68985;SDS011;56035;37.534;-122.308;2022-07-29T10:22:06;0.00;;;0.00;;
68985;SDS011;56035;37.534;-122.308;2022-07-29T10:24:34;0.35;;;0.10;;
68985;SDS011;56035;37.534;-122.308;2022-07-29T10:27:03;0.00;;;0.00;;
68985;SDS011;56035;37.534;-122.308;2022-07-29T10:29:31;0.20;;;0.10;;
68985;SDS011;56035;37.534;-122.308;2022-07-29T10:41:00;0.00;;;0.00;;
68985;SDS011;56035;37.534;-122.308;2022-07-29T10:43:50;0.35;;;0.10;;
68985;SDS011;56035;37.534;-122.308;2022-07-29T10:46:18;0.03;;;0.00;;
68985;SDS011;56035;37.534;-122.308;2022-07-29T10:54:16;0.10;;;0.05;;
68985;SDS011;56035;37.534;-122.308;2022-07-29T10:56:44;0.10;;;0.10;;
68985;SDS011;56035;37.534;-122.308;2022-07-29T11:01:48;0.30;;;0.10;;
68985;SDS011;56035;37.534;-122.308;2022-07-29T11:05:04;0.10;;;0.10;;
68985;SDS011;56035;37.534;-122.308;2022-07-29T11:07:11;0.03;;;0.00;;
68985;SDS011;56035;37.534;-122.308;2022-07-29T11:12:04;0.13;;;0.10;;
68985;SDS011;56035;37.534;-122.308;2022-07-29T11:15:02;0.25;;;0.10;;
68985;SDS011;56035;37.534;-122.308;2022-07-29T11:17:52;0.85;;;0.25;;
68985;SDS011;56035;37.534;-122.308;2022-07-29T11:23:17;0.38;;;0.10;;
68985;SDS011;56035;37.534;-122.308;2022-07-29T11:25:45;0.10;;;0.10;;
68985;SDS011;56035;37.534;-122.308;2022-07-29T11:28:33;0.10;;;0.10;;
68985;SDS011;56035;37.534;-122.308;2022-07-29T11:31:02;0.20;;;0.10;;
68985;SDS011;56035;37.534;-122.308;2022-07-29T11:33:32;0.98;;;0.20;;
68985;SDS011;56035;37.534;-122.308;2022-07-29T11:36:12;0.08;;;0.08;;
68985;SDS011;56035;37.534;-122.308;2022-07-29T11:38:40;0.22;;;0.05;;
68985;SDS011;56035;37.534;-122.308;2022-07-29T11:41:27;0.08;;;0.08;;
68985;SDS011;56035;37.534;-122.308;2022-07-29T11:43:55;0.10;;;0.10;;
68985;SDS011;56035;37.534;-122.308;2022-07-29T11:49:23;0.10;;;0.10;;
68985;SDS011;56035;37.534;-122.308;2022-07-29T11:51:56;0.10;;;0.00;;
68985;SDS011;56035;37.534;-122.308;2022-07-29T11:54:26;0.10;;;0.00;;
68985;SDS011;56035;37.534;-122.308;2022-07-29T11:56:58;0.40;;;0.10;;
68985;SDS011;56035;37.534;-122.308;2022-07-29T11:59:25;0.17;;;0.10;;
68985;SDS011;56035;37.534;-122.308;2022-07-29T12:01:56;0.23;;;0.00;;
68985;SDS011;56035;37.534;-122.308;2022-07-29T12:04:23;0.10;;;0.08;;
68985;SDS011;56035;37.534;-122.308;2022-07-29T12:06:52;0.65;;;0.10;;
68985;SDS011;56035;37.534;-122.308;2022-07-29T12:09:19;0.40;;;0.10;;
68985;SDS011;56035;37.534;-122.308;2022-07-29T12:11:46;0.10;;;0.00;;
68985;SDS011;56035;37.534;-122.308;2022-07-29T12:14:29;0.25;;;0.10;;
68985;SDS011;56035;37.534;-122.308;2022-07-29T12:16:56;0.70;;;0.10;;
68985;SDS011;56035;37.534;-122.308;2022-07-29T12:19:23;0.73;;;0.10;;
68985;SDS011;56035;37.534;-122.308;2022-07-29T12:21:54;0.17;;;0.00;;
68985;SDS011;56035;37.534;-122.308;2022-07-29T12:24:23;0.20;;;0.10;;
68985;SDS011;56035;37.534;-122.308;2022-07-29T12:29:22;0.13;;;0.10;;
68985;SDS011;56035;37.534;-122.308;2022-07-29T12:31:53;0.47;;;0.10;;
68985;SDS011;56035;37.534;-122.308;2022-07-29T12:34:20;1.65;;;0.10;;
68985;SDS011;56035;37.534;-122.308;2022-07-29T12:36:48;0.38;;;0.13;;
68985;SDS011;56035;37.534;-122.308;2022-07-29T12:39:16;0.47;;;0.10;;
68985;SDS011;56035;37.534;-122.308;2022-07-29T12:41:43;0.40;;;0.10;;
68985;SDS011;56035;37.534;-122.308;2022-07-29T12:46:36;0.32;;;0.10;;
68985;SDS011;56035;37.534;-122.308;2022-07-29T12:49:03;0.10;;;0.10;;
68985;SDS011;56035;37.534;-122.308;2022-07-29T12:51:36;0.50;;;0.10;;
68985;SDS011;56035;37.534;-122.308;2022-07-29T12:54:05;0.30;;;0.10;;
68985;SDS011;56035;37.534;-122.308;2022-07-29T12:56:33;0.20;;;0.10;;
68985;SDS011;56035;37.534;-122.308;2022-07-29T12:58:59;0.55;;;0.10;;
68985;SDS011;56035;37.534;-122.308;2022-07-29T13:01:36;0.80;;;0.00;;
68985;SDS011;56035;37.534;-122.308;2022-07-29T13:04:02;0.15;;;0.10;;
68985;SDS011;56035;37.534;-122.308;2022-07-29T13:09:14;0.35;;;0.10;;
68985;SDS011;56035;37.534;-122.308;2022-07-29T13:11:46;0.00;;;0.00;;
68985;SDS011;56035;37.534;-122.308;2022-07-29T13:14:36;0.20;;;0.00;;
68985;SDS011;56035;37.534;-122.308;2022-07-29T13:17:03;0.70;;;0.10;;
68985;SDS011;56035;37.534;-122.308;2022-07-29T13:19:35;0.20;;;0.10;;
68985;SDS011;56035;37.534;-122.308;2022-07-29T13:22:05;0.20;;;0.10;;
68985;SDS011;56035;37.534;-122.308;2022-07-29T13:24:33;0.30;;;0.10;;
68985;SDS011;56035;37.534;-122.308;2022-07-29T13:26:59;0.52;;;0.10;;
68985;SDS011;56035;37.534;-122.308;2022-07-29T13:29:25;0.38;;;0.05;;
68985;SDS011;56035;37.534;-122.308;2022-07-29T13:31:52;0.20;;;0.10;;
68985;SDS011;56035;37.534;-122.308;2022-07-29T13:34:18;0.13;;;0.00;;
68985;SDS011;56035;37.534;-122.308;2022-07-29T13:36:46;0.08;;;0.00;;
68985;SDS011;56035;37.534;-122.308;2022-07-29T13:39:12;0.20;;;0.10;;
68985;SDS011;56035;37.534;-122.308;2022-07-29T13:41:39;0.17;;;0.10;;
68985;SDS011;56035;37.534;-122.308;2022-07-29T13:44:05;0.13;;;0.03;;
68985;SDS011;56035;37.534;-122.308;2022-07-29T13:46:31;0.20;;;0.10;;
68985;SDS011;56035;37.534;-122.308;2022-07-29T13:48:57;0.30;;;0.10;;
68985;SDS011;56035;37.534;-122.308;2022-07-29T13:51:23;0.38;;;0.10;;
68985;SDS011;56035;37.534;-122.308;2022-07-29T13:53:49;0.55;;;0.10;;
68985;SDS011;56035;37.534;-122.308;2022-07-29T13:56:15;0.45;;;0.20;;
68985;SDS011;56035;37.534;-122.308;2022-07-29T13:58:42;0.20;;;0.20;;
68985;SDS011;56035;37.534;-122.308;2022-07-29T14:01:08;0.40;;;0.15;;
68985;SDS011;56035;37.534;-122.308;2022-07-29T14:03:34;0.38;;;0.30;;
68985;SDS011;56035;37.534;-122.308;2022-07-29T14:06:02;0.55;;;0.30;;
68985;SDS011;56035;37.534;-122.308;2022-07-29T14:08:29;0.20;;;0.10;;
68985;SDS011;56035;37.534;-122.308;2022-07-29T14:10:55;1.10;;;0.20;;
68985;SDS011;56035;37.534;-122.308;2022-07-29T14:13:21;0.65;;;0.10;;
68985;SDS011;56035;37.534;-122.308;2022-07-29T14:15:47;0.45;;;0.10;;
68985;SDS011;56035;37.534;-122.308;2022-07-29T14:18:13;0.47;;;0.15;;
68985;SDS011;56035;37.534;-122.308;2022-07-29T14:20:39;0.20;;;0.10;;
68985;SDS011;56035;37.534;-122.308;2022-07-29T14:23:05;0.22;;;0.10;;
68985;SDS011;56035;37.534;-122.308;2022-07-29T14:25:31;0.45;;;0.10;;
68985;SDS011;56035;37.534;-122.308;2022-07-29T14:27:57;0.68;;;0.20;;
68985;SDS011;56035;37.534;-122.308;2022-07-29T14:30:24;0.40;;;0.22;;
68985;SDS011;56035;37.534;-122.308;2022-07-29T14:32:50;0.28;;;0.10;;
68985;SDS011;56035;37.534;-122.308;2022-07-29T14:35:16;0.05;;;0.00;;
68985;SDS011;56035;37.534;-122.308;2022-07-29T14:37:42;0.40;;;0.10;;
68985;SDS011;56035;37.534;-122.308;2022-07-29T14:40:09;0.32;;;0.15;;
68985;SDS011;56035;37.534;-122.308;2022-07-29T14:42:35;0.43;;;0.15;;
68985;SDS011;56035;37.534;-122.308;2022-07-29T14:45:22;0.30;;;0.10;;
68985;SDS011;56035;37.534;-122.308;2022-07-29T14:47:48;0.10;;;0.00;;
68985;SDS011;56035;37.534;-122.308;2022-07-29T14:50:16;0.10;;;0.10;;
68985;SDS011;56035;37.534;-122.308;2022-07-29T14:52:43;0.30;;;0.10;;
68985;SDS011;56035;37.534;-122.308;2022-07-29T14:55:09;0.13;;;0.10;;
68985;SDS011;56035;37.534;-122.308;2022-07-29T14:57:35;0.08;;;0.00;;
68985;SDS011;56035;37.534;-122.308;2022-07-29T15:00:03;0.22;;;0.10;;
68985;SDS011;56035;37.534;-122.308;2022-07-29T15:02:32;0.50;;;0.00;;
68985;SDS011;56035;37.534;-122.308;2022-07-29T15:04:58;0.25;;;0.00;;
68985;SDS011;56035;37.534;-122.308;2022-07-29T15:07:25;0.20;;;0.13;;
68985;SDS011;56035;37.534;-122.308;2022-07-29T15:09:51;0.00;;;0.00;;
68985;SDS011;56035;37.534;-122.308;2022-07-29T15:12:17;0.13;;;0.00;;
68985;SDS011;56035;37.534;-122.308;2022-07-29T15:14:44;0.30;;;0.10;;
68985;SDS011;56035;37.534;-122.308;2022-07-29T15:17:10;0.15;;;0.15;;
68985;SDS011;56035;37.534;-122.308;2022-07-29T15:19:36;0.10;;;0.10;;
68985;SDS011;56035;37.534;-122.308;2022-07-29T15:22:02;0.10;;;0.10;;
68985;SDS011;56035;37.534;-122.308;2022-07-29T15:24:32;0.08;;;0.08;;
68985;SDS011;56035;37.534;-122.308;2022-07-29T15:26:58;0.30;;;0.10;;
68985;SDS011;56035;37.534;-122.308;2022-07-29T15:29:24;0.10;;;0.10;;
68985;SDS011;56035;37.534;-122.308;2022-07-29T15:31:50;0.30;;;0.10;;